createdAt,value
2017-10-08T00:00:34.225Z,0.00
2017-10-08T00:01:34.223Z,0.00
2017-10-08T00:02:34.221Z,0.00
2017-10-08T00:03:34.211Z,0.00
2017-10-08T00:04:34.214Z,0.00
2017-10-08T00:05:34.207Z,0.00
2017-10-08T00:06:34.206Z,0.00
2017-10-08T00:07:34.199Z,0.00
2017-10-08T00:08:34.193Z,0.00
2017-10-08T00:09:34.194Z,0.00
2017-10-08T00:10:34.188Z,0.00
2017-10-08T00:11:34.182Z,0.00
2017-10-08T00:12:34.179Z,0.00
2017-10-08T00:13:34.173Z,0.00
2017-10-08T00:14:34.176Z,0.00
2017-10-08T00:15:34.159Z,0.00
2017-10-08T00:16:34.168Z,0.00
2017-10-08T00:17:34.161Z,0.00
2017-10-08T00:18:34.154Z,0.00
2017-10-08T00:19:34.153Z,0.00
2017-10-08T00:20:34.152Z,0.00
2017-10-08T00:21:34.165Z,0.00
2017-10-08T00:22:34.142Z,0.00
2017-10-08T00:23:34.137Z,0.00
2017-10-08T00:24:34.139Z,0.00
2017-10-08T00:25:34.129Z,0.00
2017-10-08T00:26:34.127Z,0.00
2017-10-08T00:27:34.126Z,0.00
2017-10-08T00:28:34.111Z,0.00
2017-10-08T00:29:34.116Z,0.00
2017-10-08T00:30:34.111Z,0.00
2017-10-08T00:31:34.141Z,0.00
2017-10-08T00:32:34.101Z,0.00
2017-10-08T00:33:34.103Z,0.00
2017-10-08T00:34:34.099Z,0.00
2017-10-08T00:35:34.094Z,0.00
2017-10-08T00:36:34.090Z,0.00
2017-10-08T00:37:34.085Z,0.00
2017-10-08T00:38:34.080Z,0.00
2017-10-08T00:39:34.082Z,0.00
2017-10-08T00:40:34.074Z,0.00
2017-10-08T00:41:34.075Z,0.00
2017-10-08T00:42:34.068Z,0.00
2017-10-08T00:43:34.070Z,0.00
2017-10-08T00:44:34.073Z,0.00
2017-10-08T00:45:34.055Z,0.00
2017-10-08T00:46:34.053Z,0.00
2017-10-08T00:47:34.047Z,0.00
2017-10-08T00:48:34.068Z,0.00
2017-10-08T00:49:34.040Z,0.00
2017-10-08T00:50:34.045Z,0.00
2017-10-08T00:51:34.032Z,0.00
2017-10-08T00:52:34.031Z,0.00
2017-10-08T00:53:34.024Z,0.00
2017-10-08T00:54:34.020Z,0.00
2017-10-08T00:55:34.016Z,0.00
2017-10-08T00:56:34.025Z,0.00
2017-10-08T00:57:34.010Z,0.00
2017-10-08T00:58:34.007Z,0.00
2017-10-08T00:59:34.002Z,0.00
2017-10-08T01:00:33.998Z,0.00
2017-10-08T01:01:33.998Z,0.00
2017-10-08T01:02:33.988Z,0.00
2017-10-08T01:03:33.983Z,0.00
2017-10-08T01:04:33.979Z,0.00
2017-10-08T01:05:33.975Z,0.00
2017-10-08T01:06:33.972Z,0.00
2017-10-08T01:07:33.973Z,0.00
2017-10-08T01:08:33.961Z,0.00
2017-10-08T01:09:33.961Z,0.00
2017-10-08T01:10:33.956Z,0.00
2017-10-08T01:11:33.947Z,0.00
2017-10-08T01:12:33.946Z,0.00
2017-10-08T01:13:33.940Z,0.00
2017-10-08T01:14:33.940Z,0.00
2017-10-08T01:15:33.936Z,0.00
2017-10-08T01:16:33.934Z,0.00
2017-10-08T01:17:33.926Z,0.00
2017-10-08T01:18:33.927Z,0.00
2017-10-08T01:19:33.918Z,0.00
2017-10-08T01:20:33.914Z,0.00
2017-10-08T01:21:33.912Z,0.00
2017-10-08T01:22:33.906Z,0.00
2017-10-08T01:23:33.902Z,0.00
2017-10-08T01:24:33.899Z,0.00
2017-10-08T01:25:33.900Z,0.00
2017-10-08T01:26:33.890Z,0.00
2017-10-08T01:27:33.886Z,0.00
2017-10-08T01:28:33.880Z,0.00
2017-10-08T01:29:33.877Z,0.00
2017-10-08T01:30:33.871Z,0.00
2017-10-08T01:31:33.868Z,0.00
2017-10-08T01:32:33.864Z,0.00
2017-10-08T01:33:33.858Z,0.00
2017-10-08T01:34:33.856Z,0.00
2017-10-08T01:35:33.849Z,0.00
2017-10-08T01:36:33.846Z,0.00
2017-10-08T01:37:33.843Z,0.00
2017-10-08T01:38:33.842Z,0.00
2017-10-08T01:39:33.831Z,0.00
2017-10-08T01:40:33.830Z,0.00
2017-10-08T01:41:33.825Z,0.00
2017-10-08T01:42:33.822Z,0.00
2017-10-08T01:43:33.815Z,0.00
2017-10-08T01:44:33.811Z,0.00
2017-10-08T01:45:33.808Z,0.00
2017-10-08T01:46:33.807Z,0.00
2017-10-08T01:47:33.799Z,0.00
2017-10-08T01:48:33.799Z,0.00
2017-10-08T01:49:33.792Z,0.00
2017-10-08T01:50:33.787Z,0.00
2017-10-08T01:51:33.784Z,0.00
2017-10-08T01:52:33.780Z,0.00
2017-10-08T01:53:33.774Z,0.00
2017-10-08T01:54:33.775Z,0.00
2017-10-08T01:55:33.764Z,0.00
2017-10-08T01:56:33.761Z,0.00
2017-10-08T01:57:33.757Z,0.00
2017-10-08T01:58:33.751Z,0.00
2017-10-08T01:59:33.748Z,0.00
2017-10-08T02:00:33.740Z,0.00
2017-10-08T02:01:33.740Z,0.00
2017-10-08T02:02:33.735Z,0.00
2017-10-08T02:03:33.724Z,0.00
2017-10-08T02:04:33.731Z,0.00
2017-10-08T02:05:33.724Z,0.00
2017-10-08T02:06:33.718Z,0.00
2017-10-08T02:07:33.714Z,0.00
2017-10-08T02:08:33.706Z,0.00
2017-10-08T02:09:33.704Z,0.00
2017-10-08T02:10:33.699Z,0.00
2017-10-08T02:11:33.688Z,0.00
2017-10-08T02:12:33.690Z,0.00
2017-10-08T02:13:33.685Z,0.00
2017-10-08T02:14:33.683Z,0.00
2017-10-08T02:15:33.684Z,0.00
2017-10-08T02:16:33.676Z,0.00
2017-10-08T02:17:33.672Z,0.00
2017-10-08T02:18:33.656Z,0.00
2017-10-08T02:19:33.662Z,0.00
2017-10-08T02:20:33.676Z,0.00
2017-10-08T02:21:33.653Z,0.00
2017-10-08T02:22:33.649Z,0.00
2017-10-08T02:23:33.641Z,0.00
2017-10-08T02:24:33.657Z,0.00
2017-10-08T02:25:33.640Z,0.00
2017-10-08T02:26:33.632Z,0.00
2017-10-08T02:27:33.635Z,0.00
2017-10-08T02:28:33.621Z,0.00
2017-10-08T02:29:33.623Z,0.00
2017-10-08T02:30:33.615Z,0.00
2017-10-08T02:31:33.621Z,0.00
2017-10-08T02:32:33.613Z,0.00
2017-10-08T02:33:33.612Z,0.00
2017-10-08T02:34:33.599Z,0.00
2017-10-08T02:35:33.595Z,0.00
2017-10-08T02:36:33.592Z,0.00
2017-10-08T02:37:33.588Z,0.00
2017-10-08T02:38:33.581Z,0.00
2017-10-08T02:39:33.584Z,0.00
2017-10-08T02:40:33.609Z,0.00
2017-10-08T02:41:33.583Z,0.00
2017-10-08T02:42:33.568Z,0.00
2017-10-08T02:43:33.563Z,0.00
2017-10-08T02:44:33.587Z,0.00
2017-10-08T02:45:33.555Z,0.00
2017-10-08T02:46:33.554Z,0.00
2017-10-08T02:47:33.549Z,0.00
2017-10-08T02:48:33.545Z,0.00
2017-10-08T02:49:33.543Z,0.00
2017-10-08T02:50:33.537Z,0.00
2017-10-08T02:51:33.538Z,0.00
2017-10-08T02:52:33.531Z,0.00
2017-10-08T02:53:33.529Z,0.00
2017-10-08T02:54:33.521Z,0.00
2017-10-08T02:55:33.521Z,0.00
2017-10-08T02:56:33.517Z,0.00
2017-10-08T02:57:33.515Z,0.00
2017-10-08T02:58:33.509Z,0.00
2017-10-08T02:59:33.504Z,0.00
2017-10-08T03:00:33.504Z,0.00
2017-10-08T03:01:33.493Z,0.00
2017-10-08T03:02:33.498Z,0.00
2017-10-08T03:03:33.491Z,0.00
2017-10-08T03:04:33.490Z,0.00
2017-10-08T03:05:33.486Z,0.00
2017-10-08T03:06:33.481Z,0.00
2017-10-08T03:07:33.473Z,0.00
2017-10-08T03:08:33.492Z,0.00
2017-10-08T03:09:33.467Z,0.00
2017-10-08T03:10:33.464Z,0.00
2017-10-08T03:11:33.460Z,0.00
2017-10-08T03:12:33.455Z,0.00
2017-10-08T03:13:33.453Z,0.00
2017-10-08T03:14:33.449Z,0.00
2017-10-08T03:15:33.444Z,0.00
2017-10-08T03:16:33.448Z,0.00
2017-10-08T03:17:33.438Z,0.00
2017-10-08T03:18:33.432Z,0.00
2017-10-08T03:19:33.429Z,0.00
2017-10-08T03:20:33.423Z,0.00
2017-10-08T03:21:33.417Z,0.00
2017-10-08T03:22:33.414Z,0.00
2017-10-08T03:23:33.413Z,0.00
2017-10-08T03:24:33.408Z,0.00
2017-10-08T03:25:33.407Z,0.00
2017-10-08T03:26:33.401Z,0.00
2017-10-08T03:27:33.398Z,0.00
2017-10-08T03:28:33.393Z,0.00
2017-10-08T03:29:33.389Z,0.00
2017-10-08T03:30:33.382Z,0.00
2017-10-08T03:31:33.379Z,0.00
2017-10-08T03:32:33.376Z,0.00
2017-10-08T03:33:33.371Z,0.00
2017-10-08T03:34:33.374Z,0.00
2017-10-08T03:35:33.363Z,0.00
2017-10-08T03:36:33.359Z,0.00
2017-10-08T03:37:33.355Z,0.00
2017-10-08T03:38:33.351Z,0.00
2017-10-08T03:39:33.346Z,0.00
2017-10-08T03:40:33.339Z,0.00
2017-10-08T03:41:33.341Z,0.00
2017-10-08T03:42:33.336Z,0.00
2017-10-08T03:43:33.332Z,0.00
2017-10-08T03:44:33.349Z,0.00
2017-10-08T03:45:33.324Z,0.00
2017-10-08T03:46:33.320Z,0.00
2017-10-08T03:47:33.317Z,0.00
2017-10-08T03:48:33.315Z,0.00
2017-10-08T03:49:33.309Z,0.00
2017-10-08T03:50:33.309Z,0.00
2017-10-08T03:51:33.303Z,0.00
2017-10-08T03:52:33.295Z,0.00
2017-10-08T03:53:33.296Z,0.00
2017-10-08T03:54:33.289Z,0.00
2017-10-08T03:55:33.285Z,0.00
2017-10-08T03:56:33.287Z,0.00
2017-10-08T03:57:33.280Z,0.00
2017-10-08T03:58:33.270Z,0.00
2017-10-08T03:59:33.282Z,0.00
2017-10-08T04:00:33.270Z,0.00
2017-10-08T04:01:33.316Z,0.00
2017-10-08T04:02:33.268Z,0.00
2017-10-08T04:03:33.283Z,0.00
2017-10-08T04:04:33.257Z,0.00
2017-10-08T04:05:33.253Z,0.00
2017-10-08T04:06:33.247Z,0.00
2017-10-08T04:07:33.245Z,0.00
2017-10-08T04:08:33.238Z,0.00
2017-10-08T04:09:33.241Z,0.00
2017-10-08T04:10:33.229Z,0.00
2017-10-08T04:11:33.234Z,0.00
2017-10-08T04:12:33.223Z,0.00
2017-10-08T04:13:33.221Z,0.00
2017-10-08T04:14:33.252Z,0.00
2017-10-08T04:15:33.215Z,0.00
2017-10-08T04:16:33.213Z,0.00
2017-10-08T04:17:33.214Z,0.00
2017-10-08T04:18:33.203Z,0.00
2017-10-08T04:19:33.196Z,0.00
2017-10-08T04:20:33.200Z,0.00
2017-10-08T04:21:33.186Z,0.00
2017-10-08T04:22:33.187Z,0.00
2017-10-08T04:23:33.178Z,0.00
2017-10-08T04:24:33.185Z,0.00
2017-10-08T04:25:33.173Z,0.00
2017-10-08T04:26:33.171Z,0.00
2017-10-08T04:27:33.173Z,0.00
2017-10-08T04:28:33.159Z,0.00
2017-10-08T04:29:33.159Z,0.00
2017-10-08T04:30:33.185Z,0.00
2017-10-08T04:31:33.148Z,0.00
2017-10-08T04:32:33.151Z,0.00
2017-10-08T04:33:33.148Z,0.00
2017-10-08T04:34:33.139Z,0.00
2017-10-08T04:35:33.146Z,0.00
2017-10-08T04:36:33.133Z,0.00
2017-10-08T04:37:33.134Z,0.00
2017-10-08T04:38:33.122Z,0.00
2017-10-08T04:39:33.118Z,0.00
2017-10-08T04:40:33.122Z,0.00
2017-10-08T04:41:33.114Z,0.00
2017-10-08T04:42:33.113Z,0.00
2017-10-08T04:43:33.109Z,0.00
2017-10-08T04:44:33.105Z,0.00
2017-10-08T04:45:33.101Z,0.00
2017-10-08T04:46:33.097Z,0.00
2017-10-08T04:47:33.091Z,0.00
2017-10-08T04:48:33.100Z,0.00
2017-10-08T04:49:33.108Z,0.00
2017-10-08T04:50:33.084Z,0.00
2017-10-08T04:51:33.079Z,0.00
2017-10-08T04:52:33.073Z,0.00
2017-10-08T04:53:33.074Z,0.00
2017-10-08T04:54:33.068Z,0.00
2017-10-08T04:55:33.065Z,0.00
2017-10-08T04:56:33.063Z,0.00
2017-10-08T04:57:33.058Z,0.00
2017-10-08T04:58:33.059Z,0.00
2017-10-08T04:59:33.052Z,0.00
2017-10-08T05:00:33.052Z,0.00
2017-10-08T05:01:33.042Z,0.00
2017-10-08T05:02:33.040Z,0.00
2017-10-08T05:03:33.034Z,0.00
2017-10-08T05:04:33.032Z,0.00
2017-10-08T05:05:33.028Z,0.00
2017-10-08T05:06:33.027Z,0.00
2017-10-08T05:07:33.021Z,0.00
2017-10-08T05:08:33.023Z,0.00
2017-10-08T05:09:33.010Z,0.00
2017-10-08T05:10:33.010Z,4.00
2017-10-08T05:11:33.008Z,4.00
2017-10-08T05:12:33.024Z,4.00
2017-10-08T05:13:32.995Z,4.00
2017-10-08T05:14:32.998Z,0.00
2017-10-08T05:15:32.990Z,4.00
2017-10-08T05:16:32.988Z,4.00
2017-10-08T05:17:32.987Z,4.00
2017-10-08T05:18:32.981Z,4.00
2017-10-08T05:19:32.978Z,4.00
2017-10-08T05:20:32.972Z,8.00
2017-10-08T05:21:32.974Z,8.00
2017-10-08T05:22:32.968Z,12.00
2017-10-08T05:23:32.964Z,12.00
2017-10-08T05:24:32.966Z,16.00
2017-10-08T05:25:32.956Z,16.00
2017-10-08T05:26:32.955Z,28.00
2017-10-08T05:27:32.951Z,28.00
2017-10-08T05:28:32.949Z,32.00
2017-10-08T05:29:32.945Z,36.00
2017-10-08T05:30:32.941Z,40.00
2017-10-08T05:31:32.934Z,44.00
2017-10-08T05:32:32.934Z,52.00
2017-10-08T05:33:32.927Z,56.00
2017-10-08T05:34:32.929Z,64.00
2017-10-08T05:35:32.922Z,72.00
2017-10-08T05:36:32.921Z,80.00
2017-10-08T05:37:32.920Z,84.00
2017-10-08T05:38:32.909Z,96.00
2017-10-08T05:39:32.907Z,100.00
2017-10-08T05:40:32.904Z,112.00
2017-10-08T05:41:32.905Z,112.00
2017-10-08T05:42:32.899Z,116.00
2017-10-08T05:43:32.896Z,116.00
2017-10-08T05:44:32.895Z,112.00
2017-10-08T05:45:32.887Z,108.00
2017-10-08T05:46:32.888Z,104.00
2017-10-08T05:47:32.882Z,104.00
2017-10-08T05:48:32.879Z,104.00
2017-10-08T05:49:32.874Z,120.00
2017-10-08T05:50:32.867Z,128.00
2017-10-08T05:51:32.869Z,164.00
2017-10-08T05:52:32.868Z,196.00
2017-10-08T05:53:32.864Z,228.00
2017-10-08T05:54:32.860Z,260.00
2017-10-08T05:55:32.858Z,292.00
2017-10-08T05:56:32.852Z,308.00
2017-10-08T05:57:32.849Z,332.00
2017-10-08T05:58:32.848Z,336.00
2017-10-08T05:59:32.848Z,328.00
2017-10-08T06:00:32.845Z,336.00
2017-10-08T06:01:32.842Z,368.00
2017-10-08T06:02:32.833Z,404.00
2017-10-08T06:03:32.828Z,452.00
2017-10-08T06:04:32.824Z,472.00
2017-10-08T06:05:32.824Z,492.00
2017-10-08T06:06:32.821Z,496.00
2017-10-08T06:07:32.816Z,512.00
2017-10-08T06:08:32.815Z,536.00
2017-10-08T06:09:32.809Z,568.00
2017-10-08T06:10:32.810Z,564.00
2017-10-08T06:11:32.804Z,584.00
2017-10-08T06:12:32.804Z,604.00
2017-10-08T06:13:32.797Z,596.00
2017-10-08T06:14:32.797Z,588.00
2017-10-08T06:15:32.794Z,576.00
2017-10-08T06:16:32.786Z,568.00
2017-10-08T06:17:32.788Z,572.00
2017-10-08T06:18:32.781Z,584.00
2017-10-08T06:19:32.779Z,616.00
2017-10-08T06:20:32.778Z,660.00
2017-10-08T06:21:32.777Z,756.00
2017-10-08T06:22:32.784Z,820.00
2017-10-08T06:23:32.770Z,868.00
2017-10-08T06:24:32.762Z,904.00
2017-10-08T06:25:32.761Z,896.00
2017-10-08T06:26:32.759Z,904.00
2017-10-08T06:27:32.755Z,892.00
2017-10-08T06:28:32.748Z,900.00
2017-10-08T06:29:32.750Z,912.00
2017-10-08T06:30:32.740Z,932.00
2017-10-08T06:31:32.743Z,932.00
2017-10-08T06:32:32.742Z,956.00
2017-10-08T06:33:32.736Z,984.00
2017-10-08T06:34:32.736Z,1036.00
2017-10-08T06:35:32.729Z,1128.00
2017-10-08T06:36:32.729Z,1228.00
2017-10-08T06:37:32.726Z,1272.00
2017-10-08T06:38:32.722Z,1360.00
2017-10-08T06:39:32.725Z,1348.00
2017-10-08T06:40:32.732Z,1248.00
2017-10-08T06:41:32.726Z,1236.00
2017-10-08T06:42:32.713Z,1276.00
2017-10-08T06:43:32.705Z,1368.00
2017-10-08T06:44:32.706Z,1340.00
2017-10-08T06:45:32.702Z,1352.00
2017-10-08T06:46:32.692Z,1408.00
2017-10-08T06:47:32.693Z,1416.00
2017-10-08T06:48:32.698Z,1392.00
2017-10-08T06:49:32.693Z,1308.00
2017-10-08T06:50:32.688Z,1292.00
2017-10-08T06:51:32.685Z,1280.00
2017-10-08T06:52:32.684Z,1284.00
2017-10-08T06:53:32.678Z,1304.00
2017-10-08T06:54:32.678Z,1296.00
2017-10-08T06:55:32.673Z,1280.00
2017-10-08T06:56:32.672Z,1256.00
2017-10-08T06:57:32.671Z,1284.00
2017-10-08T06:58:32.667Z,1392.00
2017-10-08T06:59:32.663Z,1340.00
2017-10-08T07:00:32.672Z,1332.00
2017-10-08T07:01:32.658Z,1376.00
2017-10-08T07:02:32.654Z,1424.00
2017-10-08T07:03:32.654Z,1512.00
2017-10-08T07:04:32.649Z,1640.00
2017-10-08T07:05:32.648Z,1840.00
2017-10-08T07:06:32.648Z,1592.00
2017-10-08T07:07:32.647Z,1408.00
2017-10-08T07:08:32.640Z,1404.00
2017-10-08T07:09:32.635Z,1384.00
2017-10-08T07:10:32.628Z,1364.00
2017-10-08T07:11:32.633Z,1412.00
2017-10-08T07:12:32.629Z,1500.00
2017-10-08T07:13:32.621Z,1656.00
2017-10-08T07:14:32.623Z,1868.00
2017-10-08T07:15:32.626Z,2264.00
2017-10-08T07:16:32.615Z,2360.00
2017-10-08T07:17:32.616Z,2108.00
2017-10-08T07:18:32.607Z,2020.00
2017-10-08T07:19:32.606Z,2180.00
2017-10-08T07:20:32.607Z,2028.00
2017-10-08T07:21:32.603Z,1932.00
2017-10-08T07:22:32.602Z,1944.00
2017-10-08T07:23:32.596Z,2136.00
2017-10-08T07:24:32.594Z,1936.00
2017-10-08T07:25:32.592Z,1608.00
2017-10-08T07:26:32.586Z,1524.00
2017-10-08T07:27:32.581Z,1588.00
2017-10-08T07:28:32.583Z,1640.00
2017-10-08T07:29:32.583Z,1696.00
2017-10-08T07:30:32.578Z,1744.00
2017-10-08T07:31:32.571Z,2152.00
2017-10-08T07:32:32.571Z,2420.00
2017-10-08T07:33:32.567Z,2952.00
2017-10-08T07:34:32.561Z,3296.00
2017-10-08T07:35:32.562Z,4000.00
2017-10-08T07:36:32.557Z,3720.00
2017-10-08T07:37:32.556Z,3972.00
2017-10-08T07:38:32.553Z,3584.00
2017-10-08T07:39:32.547Z,3232.00
2017-10-08T07:40:32.546Z,3364.00
2017-10-08T07:41:32.545Z,3060.00
2017-10-08T07:42:32.546Z,3020.00
2017-10-08T07:43:32.539Z,2976.00
2017-10-08T07:44:32.537Z,3088.00
2017-10-08T07:45:32.530Z,3184.00
2017-10-08T07:46:32.531Z,3300.00
2017-10-08T07:47:32.524Z,3312.00
2017-10-08T07:48:32.523Z,3044.00
2017-10-08T07:49:32.522Z,3048.00
2017-10-08T07:50:32.520Z,2940.00
2017-10-08T07:51:32.519Z,2944.00
2017-10-08T07:52:32.515Z,3184.00
2017-10-08T07:53:32.511Z,3292.00
2017-10-08T07:54:32.510Z,3704.00
2017-10-08T07:55:32.506Z,3444.00
2017-10-08T07:56:32.504Z,3552.00
2017-10-08T07:57:32.503Z,3368.00
2017-10-08T07:58:32.501Z,3264.00
2017-10-08T07:59:32.496Z,3304.00
2017-10-08T08:00:32.498Z,3040.00
2017-10-08T08:01:32.494Z,3272.00
2017-10-08T08:02:32.493Z,3136.00
2017-10-08T08:03:32.491Z,3340.00
2017-10-08T08:04:32.489Z,3356.00
2017-10-08T08:05:32.488Z,3232.00
2017-10-08T08:06:32.490Z,3688.00
2017-10-08T08:07:32.483Z,3924.00
2017-10-08T08:08:32.484Z,4132.00
2017-10-08T08:09:32.478Z,4256.00
2017-10-08T08:10:32.491Z,4308.00
2017-10-08T08:11:32.469Z,3908.00
2017-10-08T08:12:32.474Z,4012.00
2017-10-08T08:13:32.472Z,3796.00
2017-10-08T08:14:32.467Z,3476.00
2017-10-08T08:15:32.464Z,3300.00
2017-10-08T08:16:32.466Z,3336.00
2017-10-08T08:17:32.462Z,3464.00
2017-10-08T08:18:32.463Z,3224.00
2017-10-08T08:19:32.458Z,3020.00
2017-10-08T08:20:32.456Z,2748.00
2017-10-08T08:21:32.459Z,2092.00
2017-10-08T08:22:32.456Z,1912.00
2017-10-08T08:23:32.445Z,1948.00
2017-10-08T08:24:32.444Z,2256.00
2017-10-08T08:25:32.449Z,2380.00
2017-10-08T08:26:32.447Z,2648.00
2017-10-08T08:27:32.445Z,2636.00
2017-10-08T08:28:32.442Z,2784.00
2017-10-08T08:29:32.441Z,3116.00
2017-10-08T08:30:32.441Z,3368.00
2017-10-08T08:31:32.442Z,3424.00
2017-10-08T08:32:32.439Z,4052.00
2017-10-08T08:33:32.437Z,4180.00
2017-10-08T08:34:32.429Z,4488.00
2017-10-08T08:35:32.428Z,5172.00
2017-10-08T08:36:32.426Z,5472.00
2017-10-08T08:37:32.426Z,5996.00
2017-10-08T08:38:32.421Z,6224.00
2017-10-08T08:39:32.423Z,5332.00
2017-10-08T08:40:32.422Z,4160.00
2017-10-08T08:41:32.420Z,4276.00
2017-10-08T08:42:32.416Z,4656.00
2017-10-08T08:43:32.415Z,5276.00
2017-10-08T08:44:32.413Z,5620.00
2017-10-08T08:45:32.410Z,5704.00
2017-10-08T08:46:32.407Z,5336.00
2017-10-08T08:47:32.406Z,4724.00
2017-10-08T08:48:32.401Z,3564.00
2017-10-08T08:49:32.404Z,3276.00
2017-10-08T08:50:32.403Z,3204.00
2017-10-08T08:51:32.402Z,3256.00
2017-10-08T08:52:32.388Z,3364.00
2017-10-08T08:53:32.394Z,3492.00
2017-10-08T08:54:32.396Z,2944.00
2017-10-08T08:55:32.393Z,3256.00
2017-10-08T08:56:32.393Z,3448.00
2017-10-08T08:57:32.388Z,4876.00
2017-10-08T08:58:32.388Z,5588.00
2017-10-08T08:59:32.383Z,5648.00
2017-10-08T09:00:32.382Z,5196.00
2017-10-08T09:01:32.380Z,4664.00
2017-10-08T09:02:32.377Z,4228.00
2017-10-08T09:03:32.374Z,4472.00
2017-10-08T09:04:32.379Z,5204.00
2017-10-08T09:05:32.405Z,6000.00
2017-10-08T09:06:32.380Z,5840.00
2017-10-08T09:07:32.370Z,6516.00
2017-10-08T09:08:32.367Z,6796.00
2017-10-08T09:09:32.374Z,5940.00
2017-10-08T09:10:32.368Z,5512.00
2017-10-08T09:11:32.366Z,5356.00
2017-10-08T09:12:32.362Z,4988.00
2017-10-08T09:13:32.361Z,4552.00
2017-10-08T09:14:32.357Z,4372.00
2017-10-08T09:15:32.356Z,4680.00
2017-10-08T09:16:32.357Z,4936.00
2017-10-08T09:17:32.356Z,3444.00
2017-10-08T09:18:32.350Z,3224.00
2017-10-08T09:19:32.349Z,4024.00
2017-10-08T09:20:32.354Z,3872.00
2017-10-08T09:21:32.349Z,3828.00
2017-10-08T09:22:32.350Z,4112.00
2017-10-08T09:23:32.344Z,5096.00
2017-10-08T09:24:32.341Z,4928.00
2017-10-08T09:25:32.344Z,4676.00
2017-10-08T09:26:32.341Z,4376.00
2017-10-08T09:27:32.339Z,3956.00
2017-10-08T09:28:32.347Z,3660.00
2017-10-08T09:29:32.337Z,3620.00
2017-10-08T09:30:32.335Z,3444.00
2017-10-08T09:31:32.333Z,3636.00
2017-10-08T09:32:32.336Z,3820.00
2017-10-08T09:33:32.331Z,4320.00
2017-10-08T09:34:32.332Z,4832.00
2017-10-08T09:35:32.363Z,4804.00
2017-10-08T09:36:32.328Z,6132.00
2017-10-08T09:37:32.331Z,7088.00
2017-10-08T09:38:32.323Z,5952.00
2017-10-08T09:39:32.423Z,6040.00
2017-10-08T09:40:32.321Z,6608.00
2017-10-08T09:41:32.322Z,5572.00
2017-10-08T09:42:32.329Z,4932.00
2017-10-08T09:43:32.318Z,5416.00
2017-10-08T09:44:32.319Z,6108.00
2017-10-08T09:45:32.309Z,5640.00
2017-10-08T09:46:32.313Z,4604.00
2017-10-08T09:47:32.315Z,4668.00
2017-10-08T09:48:32.313Z,4696.00
2017-10-08T09:49:32.314Z,5676.00
2017-10-08T09:50:32.311Z,5296.00
2017-10-08T09:51:32.309Z,5540.00
2017-10-08T09:52:32.309Z,5936.00
2017-10-08T09:53:32.302Z,7036.00
2017-10-08T09:54:32.308Z,5444.00
2017-10-08T09:55:32.294Z,5592.00
2017-10-08T09:56:32.306Z,6648.00
2017-10-08T09:57:32.319Z,6220.00
2017-10-08T09:58:32.303Z,6512.00
2017-10-08T09:59:32.301Z,6808.00
2017-10-08T10:00:32.301Z,7428.00
2017-10-08T10:01:32.350Z,8660.00
2017-10-08T10:02:32.300Z,9420.00
2017-10-08T10:03:32.316Z,8812.00
2017-10-08T10:04:32.298Z,8288.00
2017-10-08T10:05:32.297Z,9176.00
2017-10-08T10:06:32.527Z,9748.00
2017-10-08T10:07:32.299Z,9740.00
2017-10-08T10:08:32.291Z,10036.00
2017-10-08T10:09:32.299Z,9616.00
2017-10-08T10:10:32.291Z,9772.00
2017-10-08T10:11:32.296Z,8768.00
2017-10-08T10:12:32.294Z,7588.00
2017-10-08T10:13:32.293Z,6324.00
2017-10-08T10:14:32.294Z,4780.00
2017-10-08T10:15:32.292Z,4688.00
2017-10-08T10:16:32.299Z,4004.00
2017-10-08T10:17:32.296Z,4228.00
2017-10-08T10:18:32.293Z,4484.00
2017-10-08T10:19:32.293Z,5664.00
2017-10-08T10:20:32.296Z,6664.00
2017-10-08T10:21:32.295Z,7064.00
2017-10-08T10:22:32.294Z,6880.00
2017-10-08T10:23:32.293Z,5188.00
2017-10-08T10:24:32.291Z,5148.00
2017-10-08T10:25:32.293Z,5820.00
2017-10-08T10:26:32.296Z,6692.00
2017-10-08T10:27:32.293Z,6504.00
2017-10-08T10:28:32.296Z,5500.00
2017-10-08T10:29:32.299Z,4888.00
2017-10-08T10:30:32.296Z,4524.00
2017-10-08T10:31:32.295Z,4976.00
2017-10-08T10:32:32.299Z,4308.00
2017-10-08T10:33:32.296Z,4304.00
2017-10-08T10:34:32.295Z,4320.00
2017-10-08T10:35:32.294Z,4320.00
2017-10-08T10:36:32.301Z,4040.00
2017-10-08T10:37:32.294Z,3844.00
2017-10-08T10:38:32.294Z,3860.00
2017-10-08T10:39:32.285Z,3796.00
2017-10-08T10:40:32.292Z,3708.00
2017-10-08T10:41:32.293Z,4196.00
2017-10-08T10:42:32.300Z,4496.00
2017-10-08T10:43:32.288Z,4764.00
2017-10-08T10:44:32.296Z,4328.00
2017-10-08T10:45:32.288Z,4400.00
2017-10-08T10:46:32.289Z,4364.00
2017-10-08T10:47:32.286Z,4260.00
2017-10-08T10:48:32.285Z,3680.00
2017-10-08T10:49:32.290Z,3072.00
2017-10-08T10:50:32.282Z,2812.00
2017-10-08T10:51:32.291Z,2536.00
2017-10-08T10:52:32.285Z,2144.00
2017-10-08T10:53:32.279Z,2032.00
2017-10-08T10:54:32.284Z,2076.00
2017-10-08T10:55:32.285Z,2264.00
2017-10-08T10:56:32.287Z,2208.00
2017-10-08T10:57:32.282Z,2172.00
2017-10-08T10:58:32.281Z,2300.00
2017-10-08T10:59:32.284Z,2456.00
2017-10-08T11:00:32.281Z,2768.00
2017-10-08T11:01:32.281Z,3200.00
2017-10-08T11:02:32.290Z,3888.00
2017-10-08T11:03:32.284Z,4268.00
2017-10-08T11:04:32.280Z,4872.00
2017-10-08T11:05:32.284Z,5308.00
2017-10-08T11:06:32.292Z,6032.00
2017-10-08T11:07:32.283Z,6244.00
2017-10-08T11:08:32.276Z,6100.00
2017-10-08T11:09:32.276Z,5648.00
2017-10-08T11:10:32.278Z,4560.00
2017-10-08T11:11:32.276Z,3976.00
2017-10-08T11:12:32.275Z,3780.00
2017-10-08T11:13:32.273Z,2976.00
2017-10-08T11:14:32.276Z,2780.00
2017-10-08T11:15:32.282Z,2700.00
2017-10-08T11:16:32.278Z,2848.00
2017-10-08T11:17:32.274Z,3448.00
2017-10-08T11:18:32.278Z,4016.00
2017-10-08T11:19:32.271Z,4540.00
2017-10-08T11:20:32.272Z,4780.00
2017-10-08T11:21:32.278Z,4888.00
2017-10-08T11:22:32.273Z,5280.00
2017-10-08T11:23:32.270Z,5416.00
2017-10-08T11:24:32.270Z,5420.00
2017-10-08T11:25:32.269Z,4940.00
2017-10-08T11:26:32.270Z,4292.00
2017-10-08T11:27:32.267Z,2840.00
2017-10-08T11:28:32.265Z,2332.00
2017-10-08T11:29:32.267Z,2620.00
2017-10-08T11:30:32.270Z,2896.00
2017-10-08T11:31:32.266Z,3444.00
2017-10-08T11:32:32.266Z,3752.00
2017-10-08T11:33:32.268Z,3744.00
2017-10-08T11:34:32.264Z,3964.00
2017-10-08T11:35:32.262Z,4196.00
2017-10-08T11:36:32.265Z,4044.00
2017-10-08T11:37:32.261Z,3412.00
2017-10-08T11:38:32.264Z,2672.00
2017-10-08T11:39:32.256Z,2520.00
2017-10-08T11:40:32.261Z,2420.00
2017-10-08T11:41:32.256Z,2528.00
2017-10-08T11:42:32.254Z,2608.00
2017-10-08T11:43:32.250Z,2712.00
2017-10-08T11:44:32.251Z,2852.00
2017-10-08T11:45:32.256Z,2864.00
2017-10-08T11:46:32.246Z,2828.00
2017-10-08T11:47:32.244Z,3100.00
2017-10-08T11:48:32.246Z,3708.00
2017-10-08T11:49:32.245Z,4408.00
2017-10-08T11:50:32.239Z,4960.00
2017-10-08T11:51:32.237Z,5316.00
2017-10-08T11:52:32.235Z,5156.00
2017-10-08T11:53:32.237Z,5148.00
2017-10-08T11:54:32.234Z,5572.00
2017-10-08T11:55:32.233Z,5840.00
2017-10-08T11:56:32.228Z,6436.00
2017-10-08T11:57:32.227Z,6440.00
2017-10-08T11:58:32.236Z,6364.00
2017-10-08T11:59:32.227Z,6264.00
2017-10-08T12:00:32.222Z,6264.00
2017-10-08T12:01:32.225Z,6660.00
2017-10-08T12:02:32.226Z,7444.00
2017-10-08T12:03:32.237Z,7408.00
2017-10-08T12:04:32.216Z,7540.00
2017-10-08T12:05:32.219Z,48320.00
2017-10-08T12:06:32.218Z,46944.00
2017-10-08T12:07:32.218Z,49312.00
2017-10-08T12:08:32.215Z,48896.00
2017-10-08T12:09:32.213Z,45504.00
2017-10-08T12:10:32.214Z,43072.00
2017-10-08T12:11:32.209Z,41088.00
2017-10-08T12:12:32.233Z,40960.00
2017-10-08T12:13:32.213Z,37824.00
2017-10-08T12:14:32.208Z,32576.00
2017-10-08T12:15:32.214Z,21696.00
2017-10-08T12:16:32.216Z,15328.00
2017-10-08T12:17:32.221Z,6580.00
2017-10-08T12:18:32.216Z,4772.00
2017-10-08T12:19:32.229Z,11736.00
2017-10-08T12:20:32.223Z,17696.00
2017-10-08T12:21:32.222Z,13924.00
2017-10-08T12:22:32.225Z,11536.00
2017-10-08T12:29:42.021Z,8336.00
2017-10-08T12:30:41.993Z,8404.00
2017-10-08T12:32:34.887Z,8444.00
2017-10-08T12:33:34.855Z,8476.00
2017-10-08T12:35:27.733Z,9184.00
2017-10-08T12:36:27.731Z,9932.00
2017-10-08T12:38:20.625Z,4276.00
2017-10-08T12:39:20.603Z,4660.00
2017-10-08T12:40:20.601Z,3392.00
2017-10-08T12:41:20.600Z,3808.00
2017-10-08T12:42:20.601Z,5968.00
2017-10-08T12:43:20.596Z,9608.00
2017-10-08T12:44:20.610Z,4824.00
2017-10-08T12:45:20.603Z,11896.00
2017-10-08T12:46:20.599Z,12680.00